• Join FlightAware (Why Join?)
  • Login
  • US Flag 
02:35PM EDT


 

Airport Tracker/Info


-or-


 

Live Flight TrackerFlight Track Log ✈ DAL2082 ✈ 18-Jan-2014 ✈ KJFK - KLAS

Flight Track Log - Related Links

Times and Time Zones

All times are in EST time to prevent confusion due to time zone crossing. See the DAL2082 flight status page for this flight to view local times or setup timezone preferences in your user account.

Time Position Orientation Groundspeed Altitude Reporting Facility
EST Latitude Longitude Course Direction KTS MPH feet Rate Location/Type
04:14PM 40.6000 -73.8000 270° West 182 209 2,000  Level New York TRACON
04:15PM 40.5833 -73.7333 108° East 263 303 4,000 2,460 Climbing New York TRACON
04:16PM 40.6333 -73.6500 52° Northeast 282 325 7,000 2,820 Climbing New York TRACON
04:17PM 40.6735 -74.2500 281° West  Level Estimated
04:17PM 40.6833 -73.5833 45° Northeast 298 343 9,500  Level New York TRACON
04:18PM 40.6843 -74.4071 285° West  Level Estimated
04:18PM 40.7833 -73.5833 360° North 316 364 11,600  Level New York TRACON
04:19PM 40.6949 -74.5643 270° West  Level Estimated
04:20PM 40.9472 -73.6611 340° North 354 407 15,400  Level New York Center
04:21PM 41.0414 -73.7258 333° Northwest 366 421 17,600 2,100 Climbing New York Center
04:22PM 41.1225 -73.8119 321° Northwest 372 428 19,700 2,100 Climbing New York Center
04:23PM 41.1439 -73.9453 282° West 350 403 21,900 1,920 Climbing New York Center
04:24PM 41.1653 -74.0783 282° West 356 410 23,600 1,620 Climbing New York Center
04:25PM 41.1781 -74.2142 277° West 363 418 25,200 1,500 Climbing New York Center
04:26PM 41.1906 -74.3497 277° West 368 423 26,600 900 Climbing New York Center
04:27PM 41.1864 -74.4903 268° West 380 437 27,100 780 Climbing New York Center
04:28PM 41.1281 -74.6164 238° Southwest 380 437 28,200 1,200 Climbing New York Center
04:29PM 41.0678 -74.7422 238° Southwest 393 452 29,600 1,440 Climbing New York Center
04:30PM 41.0111 -74.8736 240° Southwest 405 466 31,100 1,260 Climbing New York Center
04:31PM 40.9608 -75.0025 243° Southwest 410 472 32,200 1,200 Climbing New York Center
04:32PM 40.9247 -75.1350 250° West 405 466 33,600 1,260 Climbing New York Center
04:33PM 40.8947 -75.2647 253° West 400 460 34,800 780 Climbing New York Center
04:34PM 40.8667 -75.4028 255° West 395 455 35,200 600 Climbing New York Center
04:35PM 40.8361 -75.5406 254° West 395 455 36,000 360 Climbing New York Center
04:36PM 40.8017 -75.6725 251° West 390 449 36,000  Level New York Center
04:37PM 40.7708 -75.8075 253° West 390 449 36,000  Level New York Center
04:38PM 40.7358 -75.9444 251° West 395 455 36,000  Level New York Center
04:39PM 40.7461 -76.0878 275° West 387 445 36,000  Level New York Center
04:40PM 40.7583 -76.2311 276° West 387 445 36,000  Level New York Center
04:41PM 40.7764 -76.3778 279° West 392 451 36,000  Level New York Center
04:42PM 40.7944 -76.5219 279° West 398 458 36,000  Level New York Center
04:43PM 40.8144 -76.6664 280° West 403 464 36,000  Level New York Center
04:44PM 40.8322 -76.8103 279° West 403 464 36,000  Level New York Center
04:45PM 40.8497 -76.9547 279° West 403 464 36,000  Level New York Center
04:46PM 40.8653 -77.0961 278° West 398 458 36,000  Level New York Center
04:47PM 40.8825 -77.2406 279° West 393 452 36,000  Level New York Center
04:48PM 40.9017 -77.3850 280° West 393 452 36,000  Level New York Center
04:50PM 40.9283 -77.6186 279° West 400 460 36,000 -120 Level Cleveland Center
04:51PM 40.9486 -77.7914 279° West 398 458 35,800 -360 Descending Cleveland Center
04:52PM 40.9650 -77.9375 278° West 402 463 35,300 -660 Descending Cleveland Center
04:53PM 40.9811 -78.0833 278° West 402 463 34,500 -660 Descending Cleveland Center
04:54PM 40.9975 -78.2264 279° West 397 457 34,000 -300 Descending Cleveland Center
04:55PM 41.0142 -78.3775 278° West 389 448 34,000 240 Level Cleveland Center
04:56PM 41.0311 -78.5178 279° West 389 448 34,500 840 Climbing Cleveland Center
04:57PM 41.0444 -78.6619 277° West 394 453 35,800 720 Climbing Cleveland Center
04:58PM 41.0594 -78.8033 278° West 393 452 36,000 60 Climbing Cleveland Center
04:59PM 41.0728 -78.9439 277° West 385 443 36,000  Level Cleveland Center
05:00PM 41.0867 -79.0878 277° West 397 457 36,000 240 Level Cleveland Center
05:01PM 41.1031 -79.2331 279° West 401 461 36,500 540 Climbing Cleveland Center
05:02PM 41.1169 -79.3761 277° West 399 459 37,100 540 Climbing Cleveland Center
05:03PM 41.1308 -79.5186 277° West 394 453 37,600 420 Climbing Cleveland Center
05:04PM 41.1444 -79.6678 277° West 400 460 38,000 180 Climbing Cleveland Center
05:05PM 41.1589 -79.8147 277° West 403 464 38,000  Level Cleveland Center
05:06PM 41.1753 -79.9858 277° West 396 456 38,000  Level Cleveland Center
05:07PM 41.1881 -80.1297 277° West 407 468 38,000  Level Cleveland Center
05:08PM 41.2025 -80.2744 278° West 401 461 38,000  Level Cleveland Center
05:09PM 41.2158 -80.4289 277° West 414 476 38,000  Level Cleveland Center
05:10PM 41.2292 -80.5778 277° West 408 470 38,000  Level Cleveland Center
05:11PM 41.2422 -80.7256 277° West 403 464 38,000  Level Cleveland Center
05:12PM 41.2556 -80.8750 277° West 405 466 38,000  Level Cleveland Center
05:13PM 41.2678 -81.0256 276° West 407 468 38,000  Level Cleveland Center
05:14PM 41.2803 -81.1789 276° West 412 474 38,000  Level Cleveland Center
05:15PM 41.2928 -81.3311 276° West 411 473 38,000  Level Cleveland Center
05:16PM 41.3058 -81.4939 276° West 408 470 38,000  Level Cleveland Center
05:17PM 41.3181 -81.6428 276° West 406 467 38,000  Level Cleveland Center
05:18PM 41.3303 -81.7911 276° West 406 467 38,000  Level Cleveland Center
05:19PM 41.3417 -81.9414 276° West 410 472 38,000  Level Cleveland Center
05:20PM 41.3531 -82.0922 276° West 413 475 38,000  Level Cleveland Center
05:21PM 41.3633 -82.2519 275° West 412 474 38,000  Level Cleveland Center
05:22PM 41.3733 -82.4058 275° West 413 475 38,000  Level Cleveland Center
05:23PM 41.3817 -82.5586 274° West 412 474 38,000  Level Cleveland Center
05:24PM 41.3900 -82.7125 274° West 413 475 38,000  Level Cleveland Center
05:25PM 41.3986 -82.8664 274° West 413 475 38,000  Level Cleveland Center
05:26PM 41.4064 -83.0192 274° West 412 474 38,000  Level Cleveland Center
05:28PM 41.4156 -83.1861 274° West 415 478 38,000  Level Cleveland Center
05:29PM 41.4242 -83.3403 274° West 417 480 38,000  Level Cleveland Center
05:30PM 41.4308 -83.4942 273° West 417 480 38,000  Level Cleveland Center
05:31PM 41.4394 -83.6494 274° West 417 480 38,000  Level Cleveland Center
05:32PM 41.4456 -83.8039 273° West 418 481 38,000  Level Cleveland Center
05:33PM 41.4528 -83.9586 274° West 418 481 38,000  Level Cleveland Center
05:34PM 41.4597 -84.1128 273° West 417 480 38,000  Level Cleveland Center
05:34PM 41.4650 -84.2450 273° West 417 480 38,000  Level Chicago Center
05:35PM 41.4714 -84.4003 273° West 419 482 38,000  Level Chicago Center
05:36PM 41.4775 -84.5558 273° West 422 486 38,000  Level Chicago Center
05:37PM 41.4833 -84.7108 273° West 420 483 38,000  Level Chicago Center
05:38PM 41.4889 -84.8661 273° West 421 484 38,000  Level Chicago Center
05:39PM 41.4950 -85.0233 273° West 423 487 38,000  Level Chicago Center
05:41PM 41.5000 -85.1797 272° West 422 486 38,000  Level Chicago Center
05:42PM 41.5058 -85.3389 273° West 423 487 38,000  Level Chicago Center
05:43PM 41.5117 -85.4983 273° West 420 483 38,000  Level Chicago Center
05:44PM 41.5153 -85.6564 272° West 419 482 38,000  Level Chicago Center
05:45PM 41.5192 -85.8139 272° West 423 487 38,000  Level Chicago Center
05:46PM 41.5233 -86.0028 272° West 424 488 38,000  Level Chicago Center
05:47PM 41.5272 -86.1594 272° West 423 487 38,000  Level Chicago Center
05:48PM 41.5303 -86.3169 272° West 423 487 38,000  Level Chicago Center
05:49PM 41.5322 -86.4739 271° West 423 487 38,000  Level Chicago Center
05:50PM 41.5342 -86.6314 271° West 425 489 38,000  Level Chicago Center
05:51PM 41.5375 -86.8103 271° West 426 490 38,000  Level Chicago Center
05:52PM 41.5386 -86.9683 271° West 427 491 38,000  Level Chicago Center
05:53PM 41.5403 -87.1264 271° West 429 494 38,000  Level Chicago Center
05:54PM 41.5417 -87.2864 271° West 432 497 38,000  Level Chicago Center
05:55PM 41.5433 -87.4458 271° West 432 497 38,000  Level Chicago Center
05:56PM 41.5433 -87.6061 270° West 433 498 38,000  Level Chicago Center
05:57PM 41.5442 -87.7669 270° West 437 503 38,000  Level Chicago Center
05:58PM 41.5447 -87.9267 270° West 437 503 38,000  Level Chicago Center
05:59PM 41.5453 -88.1150 270° West 436 502 38,000  Level Chicago Center
06:00PM 41.5456 -88.2753 270° West 441 507 38,000  Level Chicago Center
06:01PM 41.5461 -88.4389 270° West 444 511 38,000  Level Chicago Center
06:02PM 41.5469 -88.6003 270° West 441 507 38,000  Level Chicago Center
06:03PM 41.5472 -88.7644 270° West 444 511 38,000  Level Chicago Center
06:04PM 41.5478 -88.9594 270° West 441 507 38,000  Level Chicago Center
06:05PM 41.5478 -89.1233 270° West 443 510 38,000  Level Chicago Center
06:06PM 41.5464 -89.2875 269° West 443 510 38,000  Level Chicago Center
06:07PM 41.5478 -89.4519 271° West 445 512 38,000  Level Chicago Center
06:08PM 41.5461 -89.6244 269° West 445 512 38,000  Level Chicago Center
06:09PM 41.5461 -89.7892 270° West 445 512 38,000  Level Chicago Center
06:10PM 41.5450 -89.9531 270° West 445 512 38,000  Level Chicago Center
06:11PM 41.5436 -90.1178 269° West 445 512 38,000  Level Chicago Center
06:12PM 41.5408 -90.2847 269° West 453 521 38,000  Level Chicago Center
06:13PM 41.5392 -90.4522 269° West 455 524 38,000  Level Chicago Center
06:14PM 41.5367 -90.6414 269° West 446 513 38,000  Level Chicago Center
06:15PM 41.5339 -90.8078 269° West 450 518 38,000  Level Chicago Center
06:16PM 41.5319 -90.9728 269° West 447 514 38,000  Level Chicago Center
06:17PM 41.5283 -91.1389 268° West 449 517 38,000  Level Chicago Center
06:18PM 41.5250 -91.3053 269° West 451 519 38,000  Level Chicago Center
06:19PM 41.5222 -91.4714 269° West 450 518 38,000  Level Chicago Center
06:20PM 41.5169 -91.6369 268° West 448 516 38,000  Level Chicago Center
06:21PM 41.4975 -91.8378 263° West 455 524 38,000  Level Chicago Center
06:22PM 41.4811 -92.0061 263° West 457 526 38,000  Level Chicago Center
06:23PM 41.4661 -92.1747 263° West 459 528 38,000  Level Chicago Center
06:24PM 41.4492 -92.3422 262° West 459 528 38,000  Level Chicago Center
06:26PM 41.4331 -92.4989 262° West 462 532 38,000  Level Chicago Center
06:26PM 41.4192 -92.6339 262° West 461 531 38,000  Level Minneapolis Center
06:27PM 41.4017 -92.8008 262° West 461 531 38,000  Level Minneapolis Center
06:28PM 41.3844 -92.9689 262° West 461 531 38,000  Level Minneapolis Center
06:29PM 41.3669 -93.1369 262° West 463 533 38,000  Level Minneapolis Center
06:30PM 41.3481 -93.3061 262° West 465 535 38,100 420 Climbing Minneapolis Center
06:31PM 41.3264 -93.5078 262° West 464 534 38,900 600 Climbing Minneapolis Center
06:32PM 41.3100 -93.6717 262° West 456 525 39,400 360 Climbing Minneapolis Center
06:33PM 41.2906 -93.8400 261° West 461 531 39,700 240 Climbing Minneapolis Center
06:34PM 41.2714 -94.0075 261° West 462 532 40,000 120 Climbing Minneapolis Center
06:35PM 41.2533 -94.1742 262° West 461 531 40,000  Level Minneapolis Center
06:36PM 41.2339 -94.3336 261° West 462 532 40,000  Level Minneapolis Center
06:37PM 41.2103 -94.5344 261° West 460 529 40,000  Level Minneapolis Center
06:38PM 41.1906 -94.7008 261° West 457 526 40,000  Level Minneapolis Center
06:39PM 41.1703 -94.8678 261° West 457 526 40,000  Level Minneapolis Center
06:40PM 41.1492 -95.0325 260° West 454 522 40,000  Level Minneapolis Center
06:42PM 41.1283 -95.1972 261° West 452 520 40,000  Level Minneapolis Center
06:43PM 41.1081 -95.3603 261° West 451 519 40,000  Level Minneapolis Center
06:44PM 41.0864 -95.5256 260° West 451 519 40,000  Level Minneapolis Center
06:45PM 41.0647 -95.6928 260° West 455 524 40,000  Level Minneapolis Center
06:46PM 41.0433 -95.8581 260° West 452 520 40,000  Level Minneapolis Center
06:47PM 41.0222 -96.0233 260° West 451 519 40,000  Level Minneapolis Center
06:48PM 40.9992 -96.1886 260° West 451 519 40,000  Level Minneapolis Center
06:49PM 40.9775 -96.3533 260° West 452 520 40,000  Level Minneapolis Center
06:50PM 40.9556 -96.5197 260° West 455 524 40,000  Level Minneapolis Center
06:51PM 40.9325 -96.6844 260° West 455 524 40,000  Level Minneapolis Center
06:52PM 40.9100 -96.8814 261° West 453 521 40,000  Level Minneapolis Center
06:53PM 40.8956 -97.0453 263° West 450 518 40,000  Level Minneapolis Center
06:54PM 40.8792 -97.2094 263° West 450 518 40,000  Level Minneapolis Center
06:55PM 40.8628 -97.3736 263° West 451 519 40,000  Level Minneapolis Center
06:56PM 40.8472 -97.5281 262° West 454 522 40,000  Level Minneapolis Center
06:57PM 40.8317 -97.6947 263° West 456 525 40,000  Level Minneapolis Center
06:58PM 40.8100 -97.8939 262° West 456 525 40,000  Level Minneapolis Center
06:59PM 40.7925 -98.0583 262° West 453 521 40,000  Level Minneapolis Center
07:00PM 40.7761 -98.2208 262° West 448 516 40,000  Level Minneapolis Center
07:01PM 40.7583 -98.3817 262° West 443 510 40,000  Level Minneapolis Center
07:02PM 40.7408 -98.5436 262° West 442 509 40,000  Level Minneapolis Center
07:03PM 40.7225 -98.7053 262° West 442 509 40,000  Level Minneapolis Center
07:04PM 40.7050 -98.8675 262° West 443 510 40,000  Level Minneapolis Center
07:05PM 40.6864 -99.0281 261° West 442 509 40,000  Level Minneapolis Center
07:06PM 40.6683 -99.1894 262° West 441 507 40,000  Level Minneapolis Center
07:07PM 40.6564 -99.2858 261° West 442 509 40,000  Level Denver Center
07:08PM 40.6383 -99.4453 262° West 439 505 40,000  Level Denver Center
07:09PM 40.6150 -99.6394 261° West 444 511 40,000  Level Denver Center
07:10PM 40.5911 -99.8339 261° West 447 514 40,000  Level Denver Center
07:11PM 40.5714 -100.0014 261° West 453 521 40,000  Level Denver Center
07:12PM 40.5519 -100.1569 261° West 450 518 40,000  Level Denver Center
07:13PM 40.5292 -100.3392 261° West 450 518 40,000  Level Denver Center
07:14PM 40.5086 -100.4975 260° West 454 522 40,000  Level Denver Center
07:15PM 40.4883 -100.6578 261° West 459 528 40,000  Level Denver Center
07:16PM 40.4631 -100.8444 260° West 461 531 40,000  Level Denver Center
07:17PM 40.4436 -101.0067 261° West 466 536 40,000  Level Denver Center
07:18PM 40.4200 -101.1669 259° West 466 536 40,000  Level Denver Center
07:19PM 40.3956 -101.3547 260° West 466 536 40,000  Level Denver Center
07:20PM 40.3728 -101.5142 259° West 465 535 40,000  Level Denver Center
07:21PM 40.3461 -101.7028 260° West 471 542 40,000  Level Denver Center
07:22PM 40.3242 -101.8642 260° West 471 542 40,000  Level Denver Center
07:23PM 40.3011 -102.0233 259° West 467 537 40,000  Level Denver Center
07:24PM 40.2739 -102.2106 259° West 468 539 40,000  Level Denver Center
07:25PM 40.2506 -102.3717 259° West 469 540 40,000  Level Denver Center
07:27PM 40.2256 -102.5314 258° West 468 539 40,000  Level Denver Center
07:28PM 40.1947 -102.7464 259° West 470 541 40,000  Level Denver Center
07:29PM 40.1697 -102.9119 259° West 466 536 40,000  Level Denver Center
07:30PM 40.1425 -103.0769 258° West 465 535 40,000  Level Denver Center
07:31PM 40.1172 -103.2400 259° West 461 531 40,000  Level Denver Center
07:32PM 40.0928 -103.4014 259° West 457 526 40,000  Level Denver Center
07:33PM 40.0631 -103.5928 259° West 452 520 40,000 -300 Level Denver Center
07:34PM 40.0375 -103.7486 258° West 444 511 39,400 -1,020 Descending Denver Center
07:35PM 40.0111 -103.9114 258° West 455 524 38,000 -720 Descending Denver Center
07:36PM 39.9844 -104.0783 258° West 470 541 38,000  Level Denver Center
07:37PM 39.9572 -104.2436 258° West 471 542 38,000  Level Denver Center
07:38PM 39.9308 -104.4036 258° West 460 529 38,000  Level Denver Center
07:39PM 39.9039 -104.5636 258° West 458 527 38,000  Level Denver Center
07:40PM 39.8703 -104.7525 257° West 454 522 38,000  Level Denver Center
07:41PM 39.8394 -104.9103 256° West 456 525 38,000 -60 Level Denver Center
07:42PM 39.8083 -105.0683 256° West 458 527 37,900 -1,200 Descending Denver Center
07:43PM 39.7778 -105.2300 256° West 463 533 35,600 -1,920 Descending Denver Center
07:44PM 39.7422 -105.3917 254° West 468 539 34,000 -840 Descending Denver Center
07:45PM 39.6922 -105.5469 247° West 468 539 34,000  Level Denver Center
07:46PM 39.6228 -105.6878 237° Southwest 465 535 34,000  Level Denver Center
07:47PM 39.5433 -105.8586 239° Southwest 464 534 34,000  Level Denver Center
07:48PM 39.4775 -106.0017 239° Southwest 462 532 34,000  Level Denver Center
07:49PM 39.4164 -106.1483 242° Southwest 465 535 34,000  Level Denver Center
07:50PM 39.3681 -106.3125 249° West 460 529 34,000  Level Denver Center
07:51PM 39.3214 -106.4594 248° West 459 528 34,000  Level Denver Center
07:52PM 39.2731 -106.6092 247° West 467 537 34,000  Level Denver Center
07:53PM 39.2172 -106.7853 248° West 474 545 34,000  Level Denver Center
07:54PM 39.1667 -106.9389 247° West 482 555 34,000  Level Denver Center
07:55PM 39.1100 -107.1136 247° West 476 548 34,000 -480 Level Denver Center
07:56PM 39.0636 -107.2617 248° West 469 540 33,100 -900 Descending Denver Center
07:57PM 39.0144 -107.4117 247° West 471 542 32,200 -600 Descending Denver Center
07:58PM 38.9594 -107.5817 247° West 462 532 32,000 -120 Descending Denver Center
07:59PM 38.9117 -107.7278 247° West 462 532 32,000  Level Denver Center
08:00PM 38.8617 -107.8781 247° West 471 542 32,000  Level Denver Center
08:01PM 38.8128 -108.0281 247° West 474 545 32,000  Level Denver Center
08:02PM 38.7553 -108.2003 247° West 470 541 32,000  Level Denver Center
08:03PM 38.6975 -108.3706 247° West 466 536 32,000  Level Denver Center
08:04PM 38.6486 -108.5158 247° West 464 534 32,000  Level Denver Center
08:05PM 38.6000 -108.6608 247° West 462 532 32,000  Level Denver Center
08:06PM 38.5422 -108.8281 246° West 461 531 32,000  Level Denver Center
08:07PM 38.4928 -108.9736 247° West 464 534 32,000  Level Denver Center
08:08PM 38.4431 -109.1186 246° West 465 535 32,000  Level Denver Center
08:10PM 38.3847 -109.2900 247° West 471 542 32,000  Level Denver Center
08:11PM 38.3339 -109.4322 246° West 465 535 32,000  Level Denver Center
08:12PM 38.2825 -109.5753 245° Southwest 460 529 32,000  Level Denver Center
08:13PM 38.2236 -109.7439 246° West 465 535 32,000  Level Denver Center
08:14PM 38.1728 -109.8883 246° West 468 539 32,000  Level Denver Center
08:15PM 38.1125 -110.0558 245° Southwest 467 537 32,000  Level Denver Center
08:16PM 38.0608 -110.1997 246° West 466 536 32,000  Level Denver Center
08:17PM 38.0089 -110.3444 246° West 467 537 32,000  Level Denver Center
08:18PM 37.9497 -110.5072 245° Southwest 458 527 32,000  Level Denver Center
08:19PM 37.9028 -110.6350 245° Southwest 456 525 32,000  Level Denver Center
08:20PM 37.8514 -110.7792 246° West 451 519 32,000  Level Denver Center
08:21PM 37.7875 -110.9489 245° Southwest 446 513 32,000  Level Denver Center
08:22PM 37.7364 -111.0911 246° West 445 512 32,000  Level Denver Center
08:23PM 37.6847 -111.2319 245° Southwest 443 510 32,000  Level Denver Center
08:24PM 37.6328 -111.3731 245° Southwest 443 510 32,000  Level Denver Center
08:25PM 37.5789 -111.5167 245° Southwest 449 517 32,000  Level Denver Center
08:26PM 37.5256 -111.6592 245° Southwest 450 518 32,000  Level Denver Center
08:27PM 37.4714 -111.8022 245° Southwest 452 520 32,000  Level Denver Center
08:27PM 37.4375 -111.8892 244° Southwest 452 520 32,000  Level Salt Lake Center
08:28PM 37.3831 -112.0317 244° Southwest 452 520 32,000  Level Salt Lake Center
08:29PM 37.3292 -112.1750 245° Southwest 452 520 32,000 -660 Level Salt Lake Center
08:30PM 37.2750 -112.3175 245° Southwest 452 520 30,700 -1,380 Descending Salt Lake Center
08:32PM 37.2186 -112.4617 244° Southwest 455 524 29,200 -1,380 Descending Salt Lake Center
08:33PM 37.1631 -112.6061 244° Southwest 456 525 28,000 -600 Descending Salt Lake Center
08:34PM 37.1058 -112.7497 243° Southwest 457 526 28,000  Level Salt Lake Center
08:35PM 37.0500 -112.8947 244° Southwest 459 528 28,000  Level Salt Lake Center
08:35PM 37.0164 -112.9797 244° Southwest 456 525 28,000  Level Los Angeles Center
08:36PM 36.9597 -113.1222 244° Southwest 457 526 28,000  Level Los Angeles Center
08:37PM 36.9033 -113.2628 243° Southwest 453 521 28,000 -660 Level Los Angeles Center
08:38PM 36.8361 -113.4344 244° Southwest 456 525 26,600 -1,320 Descending Los Angeles Center
08:39PM 36.7794 -113.5781 244° Southwest 461 531 25,400 -1,200 Descending Los Angeles Center
08:40PM 36.7225 -113.7203 243° Southwest 459 528 24,200 -1,740 Descending Los Angeles Center
08:41PM 36.6672 -113.8586 244° Southwest 450 518 21,900 -2,880 Descending Los Angeles Center
08:42PM 36.6017 -114.0189 243° Southwest 436 502 18,400 -2,940 Descending Los Angeles Center
08:44PM 36.5422 -114.1558 242° Southwest 429 494 15,500 -2,640 Descending Los Angeles Center
08:45PM 36.4833 -114.2889 241° Southwest 410 472 12,600 -1,740 Descending Los Angeles Center
08:46PM 36.4294 -114.4064 240° Southwest 352 405 12,000 -600 Descending Los Angeles Center
08:46PM 36.4375 -114.3867 63° Northeast 379 436 12,000 -840 Level Los Angeles Center
08:47PM 36.3689 -114.4753 226° Southwest 308 354 11,200 -780 Descending Los Angeles Center
08:47PM 36.3664 -114.4742 160° South 307 353 11,200 -1,200 Level Los Angeles Center
08:48PM 36.2878 -114.5156 203° Southwest 304 350 9,900 -1,260 Descending Los Angeles Center
08:49PM 36.2169 -114.5681 211° Southwest 299 344 8,700 -960 Descending Los Angeles Center
08:50PM 36.1581 -114.6350 223° Southwest 293 337 8,000 -300 Descending Los Angeles Center
08:51PM 36.0989 -114.7008 222° Southwest 286 329 8,100 -480 Climbing Los Angeles Center
08:52PM 36.0736 -114.7911 251° West 277 319 7,100 -900 Descending Los Angeles Center
08:52PM 36.0725 -114.7883 116° Southeast 287 330 7,200 -1,020 Climbing Los Angeles Center
08:53PM 36.0717 -114.8717 269° West 273 314 6,200 -1,560 Descending Los Angeles Center
08:53PM 36.0733 -114.8997 274° West 279 321 5,600 -1,620 Descending Los Angeles Center
08:54PM 36.0733 -114.9669 270° West 239 275 4,600 -1,200 Descending Los Angeles Center
08:54PM 36.0736 -114.9836 271° West 243 280 4,400 -1,140 Descending Los Angeles Center
08:55PM 36.0733 -115.0361 270° West 199 229 3,500 -1,080 Descending Los Angeles Center
08:55PM 36.0736 -115.0511 271° West 204 235 3,300 -840 Descending Los Angeles Center
08:56PM 36.0739 -115.0892 271° West 145 167 2,700 -840 Descending Los Angeles Center
08:56PM 36.0733 -115.1042 267° West 145 167 2,500 -720 Descending Los Angeles Center